sensor_id;sensor_type;location;lat;lon;timestamp;P1;durP1;ratioP1;P2;durP2;ratioP2
3783;SDS011;1907;49.238;9.262;2022-10-31T00:02:00;13.07;;;9.50;;
3783;SDS011;1907;49.238;9.262;2022-10-31T00:04:25;12.70;;;8.90;;
3783;SDS011;1907;49.238;9.262;2022-10-31T00:06:51;7.73;;;7.23;;
3783;SDS011;1907;49.238;9.262;2022-10-31T00:09:16;14.37;;;7.50;;
3783;SDS011;1907;49.238;9.262;2022-10-31T00:11:42;11.10;;;7.80;;
3783;SDS011;1907;49.238;9.262;2022-10-31T00:14:08;8.23;;;7.73;;
3783;SDS011;1907;49.238;9.262;2022-10-31T00:16:33;8.50;;;7.60;;
3783;SDS011;1907;49.238;9.262;2022-10-31T00:19:00;7.60;;;6.93;;
3783;SDS011;1907;49.238;9.262;2022-10-31T00:21:28;8.13;;;7.43;;
3783;SDS011;1907;49.238;9.262;2022-10-31T00:23:54;20.07;;;8.67;;
3783;SDS011;1907;49.238;9.262;2022-10-31T00:26:19;20.83;;;8.47;;
3783;SDS011;1907;49.238;9.262;2022-10-31T00:28:45;9.03;;;8.20;;
3783;SDS011;1907;49.238;9.262;2022-10-31T00:31:11;9.40;;;8.50;;
3783;SDS011;1907;49.238;9.262;2022-10-31T00:33:38;6.73;;;6.33;;
3783;SDS011;1907;49.238;9.262;2022-10-31T00:36:05;8.00;;;7.60;;
3783;SDS011;1907;49.238;9.262;2022-10-31T00:38:31;9.73;;;7.73;;
3783;SDS011;1907;49.238;9.262;2022-10-31T00:40:57;10.43;;;8.50;;
3783;SDS011;1907;49.238;9.262;2022-10-31T00:43:22;10.10;;;8.80;;
3783;SDS011;1907;49.238;9.262;2022-10-31T00:45:48;10.57;;;7.23;;
3783;SDS011;1907;49.238;9.262;2022-10-31T00:48:14;9.63;;;8.73;;
3783;SDS011;1907;49.238;9.262;2022-10-31T00:50:40;6.53;;;6.23;;
3783;SDS011;1907;49.238;9.262;2022-10-31T00:53:06;15.33;;;7.10;;
3783;SDS011;1907;49.238;9.262;2022-10-31T00:55:32;9.20;;;7.57;;
3783;SDS011;1907;49.238;9.262;2022-10-31T00:57:58;8.90;;;7.40;;
3783;SDS011;1907;49.238;9.262;2022-10-31T01:00:23;11.30;;;6.37;;
3783;SDS011;1907;49.238;9.262;2022-10-31T01:02:49;8.53;;;7.53;;
3783;SDS011;1907;49.238;9.262;2022-10-31T01:05:15;7.27;;;6.57;;
3783;SDS011;1907;49.238;9.262;2022-10-31T01:07:41;8.90;;;8.30;;
3783;SDS011;1907;49.238;9.262;2022-10-31T01:10:08;6.63;;;6.13;;
3783;SDS011;1907;49.238;9.262;2022-10-31T01:15:04;7.13;;;6.50;;
3783;SDS011;1907;49.238;9.262;2022-10-31T01:17:30;8.00;;;7.40;;
3783;SDS011;1907;49.238;9.262;2022-10-31T01:19:56;9.40;;;7.33;;
3783;SDS011;1907;49.238;9.262;2022-10-31T01:22:21;6.70;;;6.30;;
3783;SDS011;1907;49.238;9.262;2022-10-31T01:24:47;6.60;;;6.30;;
3783;SDS011;1907;49.238;9.262;2022-10-31T01:27:12;6.43;;;5.97;;
3783;SDS011;1907;49.238;9.262;2022-10-31T01:29:38;6.73;;;6.40;;
3783;SDS011;1907;49.238;9.262;2022-10-31T01:32:03;10.97;;;5.80;;
3783;SDS011;1907;49.238;9.262;2022-10-31T01:34:29;7.70;;;6.90;;
3783;SDS011;1907;49.238;9.262;2022-10-31T01:36:55;7.50;;;6.80;;
3783;SDS011;1907;49.238;9.262;2022-10-31T01:39:20;7.60;;;7.00;;
3783;SDS011;1907;49.238;9.262;2022-10-31T01:41:47;7.13;;;6.40;;
3783;SDS011;1907;49.238;9.262;2022-10-31T01:46:45;7.33;;;6.60;;
3783;SDS011;1907;49.238;9.262;2022-10-31T01:52:14;10.03;;;6.93;;
3783;SDS011;1907;49.238;9.262;2022-10-31T01:54:46;7.73;;;5.03;;
3783;SDS011;1907;49.238;9.262;2022-10-31T01:57:15;6.53;;;6.23;;
3783;SDS011;1907;49.238;9.262;2022-10-31T01:59:44;9.43;;;6.10;;
3783;SDS011;1907;49.238;9.262;2022-10-31T02:02:15;7.27;;;6.50;;
3783;SDS011;1907;49.238;9.262;2022-10-31T02:04:43;11.00;;;6.30;;
3783;SDS011;1907;49.238;9.262;2022-10-31T02:07:10;6.23;;;5.93;;
3783;SDS011;1907;49.238;9.262;2022-10-31T02:09:39;7.67;;;7.00;;
3783;SDS011;1907;49.238;9.262;2022-10-31T02:12:05;5.53;;;5.33;;
3783;SDS011;1907;49.238;9.262;2022-10-31T02:14:33;5.67;;;5.47;;
3783;SDS011;1907;49.238;9.262;2022-10-31T02:17:01;6.63;;;6.20;;
3783;SDS011;1907;49.238;9.262;2022-10-31T02:28:23;4.77;;;4.57;;
3783;SDS011;1907;49.238;9.262;2022-10-31T02:31:10;6.10;;;5.80;;
3783;SDS011;1907;49.238;9.262;2022-10-31T02:33:45;6.43;;;6.03;;
3783;SDS011;1907;49.238;9.262;2022-10-31T02:46:55;15.43;;;7.57;;
3783;SDS011;1907;49.238;9.262;2022-10-31T02:49:40;8.37;;;7.57;;
3783;SDS011;1907;49.238;9.262;2022-10-31T02:52:29;6.83;;;6.27;;
3783;SDS011;1907;49.238;9.262;2022-10-31T02:54:56;7.00;;;6.57;;
3783;SDS011;1907;49.238;9.262;2022-10-31T02:57:26;13.30;;;6.80;;
3783;SDS011;1907;49.238;9.262;2022-10-31T03:00:02;7.90;;;6.00;;
3783;SDS011;1907;49.238;9.262;2022-10-31T03:05:05;6.70;;;6.40;;
3783;SDS011;1907;49.238;9.262;2022-10-31T03:10:58;5.43;;;5.13;;
3783;SDS011;1907;49.238;9.262;2022-10-31T03:13:32;5.97;;;5.67;;
3783;SDS011;1907;49.238;9.262;2022-10-31T03:16:36;6.93;;;6.40;;
3783;SDS011;1907;49.238;9.262;2022-10-31T03:19:09;5.37;;;5.17;;
3783;SDS011;1907;49.238;9.262;2022-10-31T03:24:19;9.73;;;5.47;;
3783;SDS011;1907;49.238;9.262;2022-10-31T03:26:50;6.13;;;5.70;;
3783;SDS011;1907;49.238;9.262;2022-10-31T03:29:20;13.67;;;7.00;;
3783;SDS011;1907;49.238;9.262;2022-10-31T03:34:48;5.37;;;4.97;;
3783;SDS011;1907;49.238;9.262;2022-10-31T03:37:18;5.60;;;5.20;;
3783;SDS011;1907;49.238;9.262;2022-10-31T03:39:45;7.80;;;5.30;;
3783;SDS011;1907;49.238;9.262;2022-10-31T03:42:18;5.43;;;5.00;;
3783;SDS011;1907;49.238;9.262;2022-10-31T03:44:51;5.50;;;5.27;;
3783;SDS011;1907;49.238;9.262;2022-10-31T03:47:31;6.43;;;6.23;;
3783;SDS011;1907;49.238;9.262;2022-10-31T03:49:58;7.53;;;5.80;;
3783;SDS011;1907;49.238;9.262;2022-10-31T03:55:25;7.97;;;7.07;;
3783;SDS011;1907;49.238;9.262;2022-10-31T03:57:54;7.80;;;7.20;;
3783;SDS011;1907;49.238;9.262;2022-10-31T04:00:32;7.30;;;6.80;;
3783;SDS011;1907;49.238;9.262;2022-10-31T04:05:28;6.90;;;6.60;;
3783;SDS011;1907;49.238;9.262;2022-10-31T04:07:55;9.20;;;7.90;;
3783;SDS011;1907;49.238;9.262;2022-10-31T04:10:23;9.90;;;7.90;;
3783;SDS011;1907;49.238;9.262;2022-10-31T04:12:57;7.20;;;6.80;;
3783;SDS011;1907;49.238;9.262;2022-10-31T04:15:29;6.10;;;5.90;;
3783;SDS011;1907;49.238;9.262;2022-10-31T04:17:58;5.80;;;5.60;;
3783;SDS011;1907;49.238;9.262;2022-10-31T04:20:34;6.60;;;6.20;;
3783;SDS011;1907;49.238;9.262;2022-10-31T04:23:08;6.13;;;5.27;;
3783;SDS011;1907;49.238;9.262;2022-10-31T04:25:42;18.47;;;6.23;;
3783;SDS011;1907;49.238;9.262;2022-10-31T04:28:08;7.33;;;6.80;;
3783;SDS011;1907;49.238;9.262;2022-10-31T04:30:33;8.37;;;7.60;;
3783;SDS011;1907;49.238;9.262;2022-10-31T04:32:59;6.97;;;6.50;;
3783;SDS011;1907;49.238;9.262;2022-10-31T04:35:25;8.10;;;7.30;;
3783;SDS011;1907;49.238;9.262;2022-10-31T04:37:51;6.57;;;6.07;;
3783;SDS011;1907;49.238;9.262;2022-10-31T04:40:16;5.47;;;4.80;;
3783;SDS011;1907;49.238;9.262;2022-10-31T04:42:42;6.63;;;5.70;;
3783;SDS011;1907;49.238;9.262;2022-10-31T04:45:08;14.17;;;6.33;;
3783;SDS011;1907;49.238;9.262;2022-10-31T04:47:34;5.00;;;4.80;;
3783;SDS011;1907;49.238;9.262;2022-10-31T04:49:59;4.30;;;4.10;;
3783;SDS011;1907;49.238;9.262;2022-10-31T04:52:25;7.10;;;6.20;;
3783;SDS011;1907;49.238;9.262;2022-10-31T04:54:51;5.70;;;5.13;;
3783;SDS011;1907;49.238;9.262;2022-10-31T04:57:16;5.40;;;5.00;;
3783;SDS011;1907;49.238;9.262;2022-10-31T04:59:42;6.27;;;5.97;;
3783;SDS011;1907;49.238;9.262;2022-10-31T05:02:07;4.97;;;4.67;;
3783;SDS011;1907;49.238;9.262;2022-10-31T05:04:33;6.03;;;5.77;;
3783;SDS011;1907;49.238;9.262;2022-10-31T05:06:59;5.70;;;5.40;;
3783;SDS011;1907;49.238;9.262;2022-10-31T05:09:24;6.30;;;5.90;;
3783;SDS011;1907;49.238;9.262;2022-10-31T05:11:52;7.70;;;7.00;;
3783;SDS011;1907;49.238;9.262;2022-10-31T05:14:21;8.03;;;7.73;;
3783;SDS011;1907;49.238;9.262;2022-10-31T05:16:46;8.20;;;7.63;;
3783;SDS011;1907;49.238;9.262;2022-10-31T05:19:12;9.40;;;8.70;;
3783;SDS011;1907;49.238;9.262;2022-10-31T05:21:37;9.70;;;8.87;;
3783;SDS011;1907;49.238;9.262;2022-10-31T05:24:03;7.87;;;7.07;;
3783;SDS011;1907;49.238;9.262;2022-10-31T05:26:29;8.83;;;8.13;;
3783;SDS011;1907;49.238;9.262;2022-10-31T05:28:54;7.03;;;6.43;;
3783;SDS011;1907;49.238;9.262;2022-10-31T05:31:20;7.03;;;6.50;;
3783;SDS011;1907;49.238;9.262;2022-10-31T05:33:45;10.50;;;6.43;;
3783;SDS011;1907;49.238;9.262;2022-10-31T05:36:11;6.80;;;6.13;;
3783;SDS011;1907;49.238;9.262;2022-10-31T05:38:36;7.57;;;7.10;;
3783;SDS011;1907;49.238;9.262;2022-10-31T05:41:02;7.83;;;7.27;;
3783;SDS011;1907;49.238;9.262;2022-10-31T05:43:28;7.70;;;7.40;;
3783;SDS011;1907;49.238;9.262;2022-10-31T05:45:54;7.50;;;5.60;;
3783;SDS011;1907;49.238;9.262;2022-10-31T05:48:20;12.70;;;8.93;;
3783;SDS011;1907;49.238;9.262;2022-10-31T05:50:49;11.17;;;7.03;;
3783;SDS011;1907;49.238;9.262;2022-10-31T05:53:15;7.67;;;7.03;;
3783;SDS011;1907;49.238;9.262;2022-10-31T05:55:41;9.20;;;8.27;;
3783;SDS011;1907;49.238;9.262;2022-10-31T05:58:08;7.67;;;7.17;;
3783;SDS011;1907;49.238;9.262;2022-10-31T06:00:34;10.33;;;6.30;;
3783;SDS011;1907;49.238;9.262;2022-10-31T06:03:01;7.77;;;7.27;;
3783;SDS011;1907;49.238;9.262;2022-10-31T06:05:28;7.60;;;7.10;;
3783;SDS011;1907;49.238;9.262;2022-10-31T06:07:55;10.27;;;7.53;;
3783;SDS011;1907;49.238;9.262;2022-10-31T06:10:21;8.53;;;7.80;;
3783;SDS011;1907;49.238;9.262;2022-10-31T06:12:47;8.07;;;7.40;;
3783;SDS011;1907;49.238;9.262;2022-10-31T06:15:13;9.63;;;8.70;;
3783;SDS011;1907;49.238;9.262;2022-10-31T06:17:38;7.90;;;7.20;;
3783;SDS011;1907;49.238;9.262;2022-10-31T06:20:04;9.50;;;6.93;;
3783;SDS011;1907;49.238;9.262;2022-10-31T06:22:30;6.03;;;5.70;;
3783;SDS011;1907;49.238;9.262;2022-10-31T06:24:56;5.87;;;5.47;;
3783;SDS011;1907;49.238;9.262;2022-10-31T06:27:22;5.23;;;4.80;;
3783;SDS011;1907;49.238;9.262;2022-10-31T06:29:48;6.97;;;6.37;;
3783;SDS011;1907;49.238;9.262;2022-10-31T06:32:13;7.53;;;6.83;;
3783;SDS011;1907;49.238;9.262;2022-10-31T06:34:39;6.43;;;6.13;;
3783;SDS011;1907;49.238;9.262;2022-10-31T06:37:09;6.50;;;6.30;;
3783;SDS011;1907;49.238;9.262;2022-10-31T06:39:36;6.80;;;6.50;;
3783;SDS011;1907;49.238;9.262;2022-10-31T06:42:02;6.43;;;6.13;;
3783;SDS011;1907;49.238;9.262;2022-10-31T06:44:28;6.27;;;5.77;;
3783;SDS011;1907;49.238;9.262;2022-10-31T06:46:54;6.03;;;5.60;;
3783;SDS011;1907;49.238;9.262;2022-10-31T06:49:20;6.37;;;6.07;;
3783;SDS011;1907;49.238;9.262;2022-10-31T06:51:49;5.70;;;5.27;;
3783;SDS011;1907;49.238;9.262;2022-10-31T06:54:15;6.73;;;6.10;;
3783;SDS011;1907;49.238;9.262;2022-10-31T06:56:41;6.67;;;5.97;;
3783;SDS011;1907;49.238;9.262;2022-10-31T06:59:07;10.50;;;5.23;;
3783;SDS011;1907;49.238;9.262;2022-10-31T07:01:33;8.20;;;7.40;;
3783;SDS011;1907;49.238;9.262;2022-10-31T07:04:01;6.40;;;5.97;;
3783;SDS011;1907;49.238;9.262;2022-10-31T07:06:27;7.23;;;6.60;;
3783;SDS011;1907;49.238;9.262;2022-10-31T07:08:52;6.63;;;6.30;;
3783;SDS011;1907;49.238;9.262;2022-10-31T07:11:18;5.63;;;5.33;;
3783;SDS011;1907;49.238;9.262;2022-10-31T07:13:43;6.30;;;5.63;;
3783;SDS011;1907;49.238;9.262;2022-10-31T07:16:09;9.53;;;4.93;;
3783;SDS011;1907;49.238;9.262;2022-10-31T07:18:38;6.20;;;5.60;;
3783;SDS011;1907;49.238;9.262;2022-10-31T07:21:04;9.00;;;4.67;;
3783;SDS011;1907;49.238;9.262;2022-10-31T07:23:30;5.00;;;4.70;;
3783;SDS011;1907;49.238;9.262;2022-10-31T07:25:56;5.70;;;5.27;;
3783;SDS011;1907;49.238;9.262;2022-10-31T07:28:23;4.67;;;4.43;;
3783;SDS011;1907;49.238;9.262;2022-10-31T07:30:52;4.67;;;3.10;;
3783;SDS011;1907;49.238;9.262;2022-10-31T07:33:19;5.13;;;3.80;;
3783;SDS011;1907;49.238;9.262;2022-10-31T07:35:45;5.03;;;4.70;;
3783;SDS011;1907;49.238;9.262;2022-10-31T07:38:12;6.37;;;3.50;;
3783;SDS011;1907;49.238;9.262;2022-10-31T07:40:38;3.90;;;3.70;;
3783;SDS011;1907;49.238;9.262;2022-10-31T07:43:05;2.87;;;2.67;;
3783;SDS011;1907;49.238;9.262;2022-10-31T07:45:30;3.60;;;3.40;;
3783;SDS011;1907;49.238;9.262;2022-10-31T07:47:56;3.13;;;2.93;;
3783;SDS011;1907;49.238;9.262;2022-10-31T07:50:23;3.00;;;2.87;;
3783;SDS011;1907;49.238;9.262;2022-10-31T07:53:09;3.13;;;3.03;;
3783;SDS011;1907;49.238;9.262;2022-10-31T07:55:36;4.87;;;3.40;;
3783;SDS011;1907;49.238;9.262;2022-10-31T07:58:06;3.00;;;2.90;;
3783;SDS011;1907;49.238;9.262;2022-10-31T08:00:34;4.17;;;3.90;;
3783;SDS011;1907;49.238;9.262;2022-10-31T08:03:01;3.80;;;3.60;;
3783;SDS011;1907;49.238;9.262;2022-10-31T08:05:32;3.73;;;3.63;;
3783;SDS011;1907;49.238;9.262;2022-10-31T08:07:58;3.27;;;3.10;;
3783;SDS011;1907;49.238;9.262;2022-10-31T08:10:25;2.73;;;2.63;;
3783;SDS011;1907;49.238;9.262;2022-10-31T08:15:22;3.13;;;2.90;;
3783;SDS011;1907;49.238;9.262;2022-10-31T08:17:48;8.50;;;3.50;;
3783;SDS011;1907;49.238;9.262;2022-10-31T08:20:14;3.77;;;3.57;;
3783;SDS011;1907;49.238;9.262;2022-10-31T08:22:39;2.90;;;2.73;;
3783;SDS011;1907;49.238;9.262;2022-10-31T08:25:05;2.63;;;2.53;;
3783;SDS011;1907;49.238;9.262;2022-10-31T08:27:31;3.80;;;2.40;;
3783;SDS011;1907;49.238;9.262;2022-10-31T08:29:57;2.93;;;2.73;;
3783;SDS011;1907;49.238;9.262;2022-10-31T08:32:23;3.33;;;3.13;;
3783;SDS011;1907;49.238;9.262;2022-10-31T08:34:49;3.17;;;2.83;;
3783;SDS011;1907;49.238;9.262;2022-10-31T08:37:15;2.57;;;2.47;;
3783;SDS011;1907;49.238;9.262;2022-10-31T08:39:45;2.47;;;2.37;;
3783;SDS011;1907;49.238;9.262;2022-10-31T08:42:11;2.80;;;2.60;;
3783;SDS011;1907;49.238;9.262;2022-10-31T08:44:37;2.43;;;2.33;;
3783;SDS011;1907;49.238;9.262;2022-10-31T08:47:03;3.00;;;2.90;;
3783;SDS011;1907;49.238;9.262;2022-10-31T08:49:29;3.30;;;3.20;;
3783;SDS011;1907;49.238;9.262;2022-10-31T08:51:57;3.23;;;3.03;;
3783;SDS011;1907;49.238;9.262;2022-10-31T08:54:23;2.93;;;2.73;;
3783;SDS011;1907;49.238;9.262;2022-10-31T08:56:52;3.20;;;3.10;;
3783;SDS011;1907;49.238;9.262;2022-10-31T08:59:19;3.27;;;3.07;;
3783;SDS011;1907;49.238;9.262;2022-10-31T09:01:44;3.00;;;2.90;;
3783;SDS011;1907;49.238;9.262;2022-10-31T09:04:10;4.27;;;4.07;;
3783;SDS011;1907;49.238;9.262;2022-10-31T09:06:36;3.77;;;3.57;;
3783;SDS011;1907;49.238;9.262;2022-10-31T09:09:01;3.30;;;3.10;;
3783;SDS011;1907;49.238;9.262;2022-10-31T09:11:27;3.67;;;2.77;;
3783;SDS011;1907;49.238;9.262;2022-10-31T09:13:58;3.23;;;3.03;;
3783;SDS011;1907;49.238;9.262;2022-10-31T09:16:24;4.10;;;3.23;;
3783;SDS011;1907;49.238;9.262;2022-10-31T09:18:50;4.17;;;3.87;;
3783;SDS011;1907;49.238;9.262;2022-10-31T09:21:15;3.27;;;3.07;;
3783;SDS011;1907;49.238;9.262;2022-10-31T09:23:41;3.30;;;3.10;;
3783;SDS011;1907;49.238;9.262;2022-10-31T09:26:10;6.20;;;4.30;;
3783;SDS011;1907;49.238;9.262;2022-10-31T09:28:35;3.50;;;3.30;;
3783;SDS011;1907;49.238;9.262;2022-10-31T09:31:01;11.20;;;3.40;;
3783;SDS011;1907;49.238;9.262;2022-10-31T09:33:27;2.90;;;2.70;;
3783;SDS011;1907;49.238;9.262;2022-10-31T09:35:52;4.50;;;3.50;;
3783;SDS011;1907;49.238;9.262;2022-10-31T09:38:18;4.70;;;4.17;;
3783;SDS011;1907;49.238;9.262;2022-10-31T09:48:59;5.53;;;3.60;;
3783;SDS011;1907;49.238;9.262;2022-10-31T09:51:53;5.20;;;3.90;;
3783;SDS011;1907;49.238;9.262;2022-10-31T09:54:27;4.10;;;3.90;;
3783;SDS011;1907;49.238;9.262;2022-10-31T09:56:55;6.10;;;4.87;;
3783;SDS011;1907;49.238;9.262;2022-10-31T09:59:30;10.93;;;4.87;;
3783;SDS011;1907;49.238;9.262;2022-10-31T10:07:13;3.97;;;3.77;;
3783;SDS011;1907;49.238;9.262;2022-10-31T10:09:51;4.53;;;3.60;;
3783;SDS011;1907;49.238;9.262;2022-10-31T10:24:12;11.67;;;5.80;;
3783;SDS011;1907;49.238;9.262;2022-10-31T10:27:10;4.23;;;3.93;;
3783;SDS011;1907;49.238;9.262;2022-10-31T10:32:29;8.43;;;4.63;;
3783;SDS011;1907;49.238;9.262;2022-10-31T10:35:02;4.03;;;3.83;;
3783;SDS011;1907;49.238;9.262;2022-10-31T10:37:56;5.10;;;4.50;;
3783;SDS011;1907;49.238;9.262;2022-10-31T10:40:44;4.03;;;3.60;;
3783;SDS011;1907;49.238;9.262;2022-10-31T10:57:21;8.53;;;4.10;;
3783;SDS011;1907;49.238;9.262;2022-10-31T10:59:52;4.67;;;4.27;;
3783;SDS011;1907;49.238;9.262;2022-10-31T11:02:18;4.27;;;3.97;;
3783;SDS011;1907;49.238;9.262;2022-10-31T11:04:47;4.83;;;4.33;;
3783;SDS011;1907;49.238;9.262;2022-10-31T11:07:16;7.77;;;3.73;;
3783;SDS011;1907;49.238;9.262;2022-10-31T11:09:42;4.90;;;4.50;;
3783;SDS011;1907;49.238;9.262;2022-10-31T11:12:08;4.50;;;4.20;;
3783;SDS011;1907;49.238;9.262;2022-10-31T11:14:45;5.27;;;4.90;;
3783;SDS011;1907;49.238;9.262;2022-10-31T11:17:24;11.83;;;4.47;;
3783;SDS011;1907;49.238;9.262;2022-10-31T11:22:42;4.37;;;4.03;;
3783;SDS011;1907;49.238;9.262;2022-10-31T11:27:44;4.57;;;4.30;;
3783;SDS011;1907;49.238;9.262;2022-10-31T11:30:12;6.17;;;4.20;;
3783;SDS011;1907;49.238;9.262;2022-10-31T11:32:47;11.60;;;4.27;;
3783;SDS011;1907;49.238;9.262;2022-10-31T11:35:17;7.40;;;5.33;;
3783;SDS011;1907;49.238;9.262;2022-10-31T11:37:46;4.30;;;4.10;;
3783;SDS011;1907;49.238;9.262;2022-10-31T11:40:17;15.47;;;5.20;;
3783;SDS011;1907;49.238;9.262;2022-10-31T11:42:45;7.90;;;3.83;;
3783;SDS011;1907;49.238;9.262;2022-10-31T11:45:17;5.73;;;3.77;;
3783;SDS011;1907;49.238;9.262;2022-10-31T11:47:45;5.70;;;5.13;;
3783;SDS011;1907;49.238;9.262;2022-10-31T11:50:28;6.07;;;4.37;;
3783;SDS011;1907;49.238;9.262;2022-10-31T11:53:01;12.03;;;5.20;;
3783;SDS011;1907;49.238;9.262;2022-10-31T11:55:36;4.80;;;4.40;;
3783;SDS011;1907;49.238;9.262;2022-10-31T11:58:03;5.57;;;5.07;;
3783;SDS011;1907;49.238;9.262;2022-10-31T12:00:33;4.40;;;4.03;;
3783;SDS011;1907;49.238;9.262;2022-10-31T12:03:53;2.90;;;2.80;;
3783;SDS011;1907;49.238;9.262;2022-10-31T12:08:52;6.57;;;4.30;;
3783;SDS011;1907;49.238;9.262;2022-10-31T12:14:20;7.73;;;5.17;;
3783;SDS011;1907;49.238;9.262;2022-10-31T12:30:28;4.70;;;4.40;;
3783;SDS011;1907;49.238;9.262;2022-10-31T12:41:07;9.53;;;3.60;;
3783;SDS011;1907;49.238;9.262;2022-10-31T12:46:12;8.33;;;4.30;;
3783;SDS011;1907;49.238;9.262;2022-10-31T12:54:25;5.83;;;4.33;;
3783;SDS011;1907;49.238;9.262;2022-10-31T13:05:37;10.17;;;5.47;;
3783;SDS011;1907;49.238;9.262;2022-10-31T13:13:12;4.57;;;4.37;;
3783;SDS011;1907;49.238;9.262;2022-10-31T13:15:54;5.93;;;5.20;;
3783;SDS011;1907;49.238;9.262;2022-10-31T13:18:29;9.80;;;5.27;;
3783;SDS011;1907;49.238;9.262;2022-10-31T13:21:03;4.93;;;4.53;;
3783;SDS011;1907;49.238;9.262;2022-10-31T13:23:35;4.90;;;4.50;;
3783;SDS011;1907;49.238;9.262;2022-10-31T13:26:12;5.63;;;5.20;;
3783;SDS011;1907;49.238;9.262;2022-10-31T13:28:46;4.77;;;4.47;;
3783;SDS011;1907;49.238;9.262;2022-10-31T13:31:27;10.43;;;5.00;;
3783;SDS011;1907;49.238;9.262;2022-10-31T13:33:53;5.70;;;4.67;;
3783;SDS011;1907;49.238;9.262;2022-10-31T13:42:19;5.03;;;4.73;;
3783;SDS011;1907;49.238;9.262;2022-10-31T13:44:54;5.27;;;4.87;;
3783;SDS011;1907;49.238;9.262;2022-10-31T13:49:45;5.80;;;5.30;;
3783;SDS011;1907;49.238;9.262;2022-10-31T13:54:40;6.17;;;5.70;;
3783;SDS011;1907;49.238;9.262;2022-10-31T13:57:18;5.20;;;4.90;;
3783;SDS011;1907;49.238;9.262;2022-10-31T13:59:53;7.73;;;6.93;;
3783;SDS011;1907;49.238;9.262;2022-10-31T14:02:24;5.30;;;4.83;;
3783;SDS011;1907;49.238;9.262;2022-10-31T14:05:25;9.43;;;6.07;;
3783;SDS011;1907;49.238;9.262;2022-10-31T14:07:48;5.93;;;5.40;;
3783;SDS011;1907;49.238;9.262;2022-10-31T14:10:20;5.83;;;5.33;;
3783;SDS011;1907;49.238;9.262;2022-10-31T14:13:27;5.17;;;4.87;;
3783;SDS011;1907;49.238;9.262;2022-10-31T14:16:45;5.20;;;4.80;;
3783;SDS011;1907;49.238;9.262;2022-10-31T14:19:26;7.63;;;6.63;;
3783;SDS011;1907;49.238;9.262;2022-10-31T14:21:46;6.57;;;6.27;;
3783;SDS011;1907;49.238;9.262;2022-10-31T14:26:55;7.43;;;5.90;;
3783;SDS011;1907;49.238;9.262;2022-10-31T14:29:32;6.93;;;6.23;;
3783;SDS011;1907;49.238;9.262;2022-10-31T14:40:26;5.40;;;4.90;;
3783;SDS011;1907;49.238;9.262;2022-10-31T14:51:18;7.60;;;4.10;;
3783;SDS011;1907;49.238;9.262;2022-10-31T14:53:50;5.90;;;4.37;;
3783;SDS011;1907;49.238;9.262;2022-10-31T14:56:42;5.67;;;4.63;;
3783;SDS011;1907;49.238;9.262;2022-10-31T14:59:09;4.60;;;4.20;;
3783;SDS011;1907;49.238;9.262;2022-10-31T15:01:39;3.80;;;3.70;;
3783;SDS011;1907;49.238;9.262;2022-10-31T15:04:15;8.50;;;4.30;;
3783;SDS011;1907;49.238;9.262;2022-10-31T15:06:44;6.97;;;6.33;;
3783;SDS011;1907;49.238;9.262;2022-10-31T15:09:27;7.97;;;7.40;;
3783;SDS011;1907;49.238;9.262;2022-10-31T15:11:58;11.93;;;6.80;;
3783;SDS011;1907;49.238;9.262;2022-10-31T15:14:26;7.20;;;6.70;;
3783;SDS011;1907;49.238;9.262;2022-10-31T15:16:55;10.20;;;8.77;;
3783;SDS011;1907;49.238;9.262;2022-10-31T15:19:26;8.17;;;7.30;;
3783;SDS011;1907;49.238;9.262;2022-10-31T15:21:54;7.77;;;7.07;;
3783;SDS011;1907;49.238;9.262;2022-10-31T15:24:22;7.10;;;6.80;;
3783;SDS011;1907;49.238;9.262;2022-10-31T15:26:57;11.00;;;8.27;;
3783;SDS011;1907;49.238;9.262;2022-10-31T15:29:24;9.00;;;8.30;;
3783;SDS011;1907;49.238;9.262;2022-10-31T15:37:01;6.87;;;6.27;;
3783;SDS011;1907;49.238;9.262;2022-10-31T15:39:27;10.77;;;5.23;;
3783;SDS011;1907;49.238;9.262;2022-10-31T15:41:53;6.80;;;5.07;;
3783;SDS011;1907;49.238;9.262;2022-10-31T15:44:24;13.93;;;12.83;;
3783;SDS011;1907;49.238;9.262;2022-10-31T15:54:41;7.00;;;5.50;;
3783;SDS011;1907;49.238;9.262;2022-10-31T15:57:13;6.27;;;5.87;;
3783;SDS011;1907;49.238;9.262;2022-10-31T15:59:40;21.73;;;7.40;;
3783;SDS011;1907;49.238;9.262;2022-10-31T16:02:10;11.43;;;5.30;;
3783;SDS011;1907;49.238;9.262;2022-10-31T16:04:37;19.37;;;6.00;;
3783;SDS011;1907;49.238;9.262;2022-10-31T16:07:14;23.77;;;5.23;;
3783;SDS011;1907;49.238;9.262;2022-10-31T16:09:51;6.57;;;6.20;;
3783;SDS011;1907;49.238;9.262;2022-10-31T16:12:24;7.13;;;5.07;;
3783;SDS011;1907;49.238;9.262;2022-10-31T16:14:56;8.80;;;5.77;;
3783;SDS011;1907;49.238;9.262;2022-10-31T16:17:22;6.53;;;6.00;;
3783;SDS011;1907;49.238;9.262;2022-10-31T16:22:28;6.90;;;6.33;;
3783;SDS011;1907;49.238;9.262;2022-10-31T16:27:39;5.23;;;4.93;;
3783;SDS011;1907;49.238;9.262;2022-10-31T16:33:03;9.40;;;8.63;;
3783;SDS011;1907;49.238;9.262;2022-10-31T16:35:33;8.13;;;7.40;;
3783;SDS011;1907;49.238;9.262;2022-10-31T16:38:01;66.67;;;34.20;;
3783;SDS011;1907;49.238;9.262;2022-10-31T16:40:27;54.33;;;32.07;;
3783;SDS011;1907;49.238;9.262;2022-10-31T16:42:53;32.70;;;22.27;;
3783;SDS011;1907;49.238;9.262;2022-10-31T16:45:22;16.47;;;14.73;;
3783;SDS011;1907;49.238;9.262;2022-10-31T16:47:50;13.00;;;11.90;;
3783;SDS011;1907;49.238;9.262;2022-10-31T16:50:20;13.33;;;9.50;;
3783;SDS011;1907;49.238;9.262;2022-10-31T16:52:46;11.93;;;10.73;;
3783;SDS011;1907;49.238;9.262;2022-10-31T16:55:16;14.73;;;11.87;;
3783;SDS011;1907;49.238;9.262;2022-10-31T16:57:44;13.40;;;9.63;;
3783;SDS011;1907;49.238;9.262;2022-10-31T17:00:16;10.80;;;8.27;;
3783;SDS011;1907;49.238;9.262;2022-10-31T17:02:44;12.27;;;8.13;;
3783;SDS011;1907;49.238;9.262;2022-10-31T17:05:11;9.57;;;8.90;;
3783;SDS011;1907;49.238;9.262;2022-10-31T17:07:38;8.17;;;7.40;;
3783;SDS011;1907;49.238;9.262;2022-10-31T17:10:04;7.50;;;7.20;;
3783;SDS011;1907;49.238;9.262;2022-10-31T17:12:30;7.13;;;6.63;;
3783;SDS011;1907;49.238;9.262;2022-10-31T17:14:56;11.63;;;7.93;;
3783;SDS011;1907;49.238;9.262;2022-10-31T17:17:22;10.97;;;8.30;;
3783;SDS011;1907;49.238;9.262;2022-10-31T17:19:47;6.80;;;6.40;;
3783;SDS011;1907;49.238;9.262;2022-10-31T17:22:13;10.93;;;7.10;;
3783;SDS011;1907;49.238;9.262;2022-10-31T17:24:39;7.40;;;7.10;;
3783;SDS011;1907;49.238;9.262;2022-10-31T17:27:05;18.13;;;8.10;;
3783;SDS011;1907;49.238;9.262;2022-10-31T17:29:31;9.80;;;9.20;;
3783;SDS011;1907;49.238;9.262;2022-10-31T17:31:56;9.63;;;8.87;;
3783;SDS011;1907;49.238;9.262;2022-10-31T17:34:23;10.80;;;9.77;;
3783;SDS011;1907;49.238;9.262;2022-10-31T17:36:49;9.53;;;9.03;;
3783;SDS011;1907;49.238;9.262;2022-10-31T17:39:15;9.40;;;8.73;;
3783;SDS011;1907;49.238;9.262;2022-10-31T17:41:41;8.37;;;7.77;;
3783;SDS011;1907;49.238;9.262;2022-10-31T17:44:08;10.30;;;9.40;;
3783;SDS011;1907;49.238;9.262;2022-10-31T17:46:35;10.37;;;9.40;;
3783;SDS011;1907;49.238;9.262;2022-10-31T17:49:01;11.27;;;10.10;;
3783;SDS011;1907;49.238;9.262;2022-10-31T17:51:29;12.10;;;11.00;;
3783;SDS011;1907;49.238;9.262;2022-10-31T17:53:55;39.37;;;29.37;;
3783;SDS011;1907;49.238;9.262;2022-10-31T17:56:22;31.63;;;18.20;;
3783;SDS011;1907;49.238;9.262;2022-10-31T17:58:47;14.73;;;13.30;;
3783;SDS011;1907;49.238;9.262;2022-10-31T18:01:13;30.60;;;18.23;;
3783;SDS011;1907;49.238;9.262;2022-10-31T18:03:41;24.80;;;17.33;;
3783;SDS011;1907;49.238;9.262;2022-10-31T18:06:07;37.27;;;17.87;;
3783;SDS011;1907;49.238;9.262;2022-10-31T18:08:35;22.70;;;18.70;;
3783;SDS011;1907;49.238;9.262;2022-10-31T18:11:12;18.97;;;12.80;;
3783;SDS011;1907;49.238;9.262;2022-10-31T18:13:43;14.50;;;12.70;;
3783;SDS011;1907;49.238;9.262;2022-10-31T18:16:10;41.33;;;15.80;;
3783;SDS011;1907;49.238;9.262;2022-10-31T18:18:37;18.40;;;13.03;;
3783;SDS011;1907;49.238;9.262;2022-10-31T18:21:03;18.83;;;13.93;;
3783;SDS011;1907;49.238;9.262;2022-10-31T18:23:29;17.97;;;15.20;;
3783;SDS011;1907;49.238;9.262;2022-10-31T18:25:55;13.87;;;12.57;;
3783;SDS011;1907;49.238;9.262;2022-10-31T18:28:20;16.50;;;13.87;;
3783;SDS011;1907;49.238;9.262;2022-10-31T18:30:46;15.43;;;12.70;;
3783;SDS011;1907;49.238;9.262;2022-10-31T18:33:12;18.00;;;13.70;;
3783;SDS011;1907;49.238;9.262;2022-10-31T18:35:38;15.23;;;13.97;;
3783;SDS011;1907;49.238;9.262;2022-10-31T18:38:04;30.02;;;17.33;;